sensor_id;sensor_type;location;lat;lon;timestamp;temperature;humidity
52275;DHT22;38228;50.940;4.024;2023-07-31T00:00:28;17.20;99.90
52275;DHT22;38228;50.940;4.024;2023-07-31T00:02:55;17.20;99.90
52275;DHT22;38228;50.940;4.024;2023-07-31T00:05:21;17.20;99.90
52275;DHT22;38228;50.940;4.024;2023-07-31T00:07:47;17.10;99.90
52275;DHT22;38228;50.940;4.024;2023-07-31T00:10:12;17.10;99.90
52275;DHT22;38228;50.940;4.024;2023-07-31T00:12:39;17.20;99.90
52275;DHT22;38228;50.940;4.024;2023-07-31T00:15:06;17.20;99.90
52275;DHT22;38228;50.940;4.024;2023-07-31T00:17:32;17.20;99.90
52275;DHT22;38228;50.940;4.024;2023-07-31T00:19:57;17.20;99.90
52275;DHT22;38228;50.940;4.024;2023-07-31T00:22:23;17.30;99.90
52275;DHT22;38228;50.940;4.024;2023-07-31T00:24:49;17.40;99.90
52275;DHT22;38228;50.940;4.024;2023-07-31T00:27:15;17.40;99.90
52275;DHT22;38228;50.940;4.024;2023-07-31T00:29:41;17.40;99.90
52275;DHT22;38228;50.940;4.024;2023-07-31T00:32:07;17.50;99.90
52275;DHT22;38228;50.940;4.024;2023-07-31T00:34:32;17.60;99.90
52275;DHT22;38228;50.940;4.024;2023-07-31T00:36:58;17.70;99.90
52275;DHT22;38228;50.940;4.024;2023-07-31T00:39:24;17.70;99.90
52275;DHT22;38228;50.940;4.024;2023-07-31T00:41:50;17.80;99.90
52275;DHT22;38228;50.940;4.024;2023-07-31T00:44:15;17.80;99.90
52275;DHT22;38228;50.940;4.024;2023-07-31T00:46:41;17.80;99.90
52275;DHT22;38228;50.940;4.024;2023-07-31T00:49:07;17.90;99.90
52275;DHT22;38228;50.940;4.024;2023-07-31T00:51:33;17.70;99.90
52275;DHT22;38228;50.940;4.024;2023-07-31T00:54:00;17.70;99.90
52275;DHT22;38228;50.940;4.024;2023-07-31T00:56:26;17.70;99.90
52275;DHT22;38228;50.940;4.024;2023-07-31T00:58:53;17.60;99.90
52275;DHT22;38228;50.940;4.024;2023-07-31T01:01:19;17.70;99.90
52275;DHT22;38228;50.940;4.024;2023-07-31T01:03:44;17.60;99.90
52275;DHT22;38228;50.940;4.024;2023-07-31T01:06:36;17.60;99.90
52275;DHT22;38228;50.940;4.024;2023-07-31T01:09:07;17.60;99.90
52275;DHT22;38228;50.940;4.024;2023-07-31T01:11:42;17.60;99.90
52275;DHT22;38228;50.940;4.024;2023-07-31T01:14:08;17.50;99.90
52275;DHT22;38228;50.940;4.024;2023-07-31T01:16:34;17.50;99.90
52275;DHT22;38228;50.940;4.024;2023-07-31T01:19:00;17.50;99.90
52275;DHT22;38228;50.940;4.024;2023-07-31T01:26:39;17.50;99.90
52275;DHT22;38228;50.940;4.024;2023-07-31T01:29:20;17.50;99.90
52275;DHT22;38228;50.940;4.024;2023-07-31T01:31:50;17.50;99.90
52275;DHT22;38228;50.940;4.024;2023-07-31T01:34:19;17.50;99.90
52275;DHT22;38228;50.940;4.024;2023-07-31T01:36:46;17.50;99.90
52275;DHT22;38228;50.940;4.024;2023-07-31T01:39:12;17.60;99.90
52275;DHT22;38228;50.940;4.024;2023-07-31T01:41:38;17.80;99.90
52275;DHT22;38228;50.940;4.024;2023-07-31T01:44:04;17.90;99.90
52275;DHT22;38228;50.940;4.024;2023-07-31T01:46:29;17.90;99.90
52275;DHT22;38228;50.940;4.024;2023-07-31T01:48:55;17.80;99.90
52275;DHT22;38228;50.940;4.024;2023-07-31T01:51:21;17.90;99.90
52275;DHT22;38228;50.940;4.024;2023-07-31T01:53:46;17.70;99.90
52275;DHT22;38228;50.940;4.024;2023-07-31T01:56:12;17.80;99.90
52275;DHT22;38228;50.940;4.024;2023-07-31T01:58:38;17.70;99.90
52275;DHT22;38228;50.940;4.024;2023-07-31T02:01:03;17.70;99.90
52275;DHT22;38228;50.940;4.024;2023-07-31T02:03:29;17.70;99.90
52275;DHT22;38228;50.940;4.024;2023-07-31T02:05:55;17.70;99.90
52275;DHT22;38228;50.940;4.024;2023-07-31T02:08:22;17.90;99.90
52275;DHT22;38228;50.940;4.024;2023-07-31T02:10:47;17.90;99.90
52275;DHT22;38228;50.940;4.024;2023-07-31T02:13:13;17.90;99.90
52275;DHT22;38228;50.940;4.024;2023-07-31T02:15:39;17.90;99.90
52275;DHT22;38228;50.940;4.024;2023-07-31T02:18:04;17.80;99.90
52275;DHT22;38228;50.940;4.024;2023-07-31T02:20:33;17.90;99.90
52275;DHT22;38228;50.940;4.024;2023-07-31T02:22:58;17.80;99.90
52275;DHT22;38228;50.940;4.024;2023-07-31T02:25:24;17.90;99.90
52275;DHT22;38228;50.940;4.024;2023-07-31T02:27:50;17.80;99.90
52275;DHT22;38228;50.940;4.024;2023-07-31T02:30:15;17.70;99.90
52275;DHT22;38228;50.940;4.024;2023-07-31T02:32:41;17.70;99.90
52275;DHT22;38228;50.940;4.024;2023-07-31T02:35:07;17.70;99.90
52275;DHT22;38228;50.940;4.024;2023-07-31T02:37:34;17.80;99.90
52275;DHT22;38228;50.940;4.024;2023-07-31T02:39:59;17.80;99.90
52275;DHT22;38228;50.940;4.024;2023-07-31T02:42:25;17.90;99.90
52275;DHT22;38228;50.940;4.024;2023-07-31T02:44:51;17.90;99.90
52275;DHT22;38228;50.940;4.024;2023-07-31T02:47:21;17.90;99.90
52275;DHT22;38228;50.940;4.024;2023-07-31T02:49:47;18.00;99.90
52275;DHT22;38228;50.940;4.024;2023-07-31T02:52:13;18.00;99.90
52275;DHT22;38228;50.940;4.024;2023-07-31T02:54:38;18.10;99.90
52275;DHT22;38228;50.940;4.024;2023-07-31T02:57:04;18.10;99.90
52275;DHT22;38228;50.940;4.024;2023-07-31T02:59:30;18.10;99.90
52275;DHT22;38228;50.940;4.024;2023-07-31T03:01:56;18.20;99.90
52275;DHT22;38228;50.940;4.024;2023-07-31T03:04:22;18.10;99.90
52275;DHT22;38228;50.940;4.024;2023-07-31T03:06:47;18.10;99.90
52275;DHT22;38228;50.940;4.024;2023-07-31T03:09:13;18.10;99.90
52275;DHT22;38228;50.940;4.024;2023-07-31T03:11:39;18.00;99.90
52275;DHT22;38228;50.940;4.024;2023-07-31T03:14:04;17.70;99.90
52275;DHT22;38228;50.940;4.024;2023-07-31T03:16:30;17.60;99.90
52275;DHT22;38228;50.940;4.024;2023-07-31T03:18:56;17.60;99.90
52275;DHT22;38228;50.940;4.024;2023-07-31T03:21:21;17.70;99.90
52275;DHT22;38228;50.940;4.024;2023-07-31T03:23:47;17.70;99.90
52275;DHT22;38228;50.940;4.024;2023-07-31T03:26:13;17.70;99.90
52275;DHT22;38228;50.940;4.024;2023-07-31T03:28:39;17.70;99.90
52275;DHT22;38228;50.940;4.024;2023-07-31T03:31:04;17.70;99.90
52275;DHT22;38228;50.940;4.024;2023-07-31T03:33:30;17.70;99.90
52275;DHT22;38228;50.940;4.024;2023-07-31T03:35:56;17.60;99.90
52275;DHT22;38228;50.940;4.024;2023-07-31T03:38:22;17.70;99.90
52275;DHT22;38228;50.940;4.024;2023-07-31T03:40:48;17.70;99.90
52275;DHT22;38228;50.940;4.024;2023-07-31T03:43:14;17.50;99.90
52275;DHT22;38228;50.940;4.024;2023-07-31T03:45:40;17.50;99.90
52275;DHT22;38228;50.940;4.024;2023-07-31T03:48:07;17.50;99.90
52275;DHT22;38228;50.940;4.024;2023-07-31T03:50:33;17.50;99.90
52275;DHT22;38228;50.940;4.024;2023-07-31T03:52:59;17.50;99.90
52275;DHT22;38228;50.940;4.024;2023-07-31T03:55:26;17.60;99.90
52275;DHT22;38228;50.940;4.024;2023-07-31T03:57:51;17.40;99.90
52275;DHT22;38228;50.940;4.024;2023-07-31T04:00:17;17.40;99.90
52275;DHT22;38228;50.940;4.024;2023-07-31T04:02:43;17.40;99.90
52275;DHT22;38228;50.940;4.024;2023-07-31T04:05:08;17.40;99.90
52275;DHT22;38228;50.940;4.024;2023-07-31T04:07:34;17.40;99.90
52275;DHT22;38228;50.940;4.024;2023-07-31T04:10:00;17.50;99.90
52275;DHT22;38228;50.940;4.024;2023-07-31T04:12:26;17.50;99.90
52275;DHT22;38228;50.940;4.024;2023-07-31T04:14:52;17.60;99.90
52275;DHT22;38228;50.940;4.024;2023-07-31T04:17:18;17.50;99.90
52275;DHT22;38228;50.940;4.024;2023-07-31T04:19:44;17.60;99.90
52275;DHT22;38228;50.940;4.024;2023-07-31T04:22:09;17.60;99.90
52275;DHT22;38228;50.940;4.024;2023-07-31T04:24:35;17.60;99.90
52275;DHT22;38228;50.940;4.024;2023-07-31T04:27:01;17.60;99.90
52275;DHT22;38228;50.940;4.024;2023-07-31T04:29:26;17.60;99.90
52275;DHT22;38228;50.940;4.024;2023-07-31T04:31:52;17.60;99.90
52275;DHT22;38228;50.940;4.024;2023-07-31T04:34:18;17.70;99.90
52275;DHT22;38228;50.940;4.024;2023-07-31T04:36:43;17.70;99.90
52275;DHT22;38228;50.940;4.024;2023-07-31T04:39:09;17.80;99.90
52275;DHT22;38228;50.940;4.024;2023-07-31T04:41:35;17.80;99.90
52275;DHT22;38228;50.940;4.024;2023-07-31T04:44:01;17.80;99.90
52275;DHT22;38228;50.940;4.024;2023-07-31T04:46:29;17.80;99.90
52275;DHT22;38228;50.940;4.024;2023-07-31T04:48:55;17.70;99.90
52275;DHT22;38228;50.940;4.024;2023-07-31T04:51:21;17.70;99.90
52275;DHT22;38228;50.940;4.024;2023-07-31T04:53:46;17.70;99.90
52275;DHT22;38228;50.940;4.024;2023-07-31T04:56:12;17.70;99.90
52275;DHT22;38228;50.940;4.024;2023-07-31T04:58:38;17.60;99.90
52275;DHT22;38228;50.940;4.024;2023-07-31T05:01:03;17.50;99.90
52275;DHT22;38228;50.940;4.024;2023-07-31T05:03:29;17.40;99.90
52275;DHT22;38228;50.940;4.024;2023-07-31T05:05:55;17.30;99.90
52275;DHT22;38228;50.940;4.024;2023-07-31T05:08:20;17.30;99.90
52275;DHT22;38228;50.940;4.024;2023-07-31T05:10:46;17.40;99.90
52275;DHT22;38228;50.940;4.024;2023-07-31T05:13:12;17.50;99.90
52275;DHT22;38228;50.940;4.024;2023-07-31T05:15:38;17.40;99.90
52275;DHT22;38228;50.940;4.024;2023-07-31T05:18:03;17.50;99.90
52275;DHT22;38228;50.940;4.024;2023-07-31T05:20:29;17.50;99.90
52275;DHT22;38228;50.940;4.024;2023-07-31T05:22:55;17.50;99.90
52275;DHT22;38228;50.940;4.024;2023-07-31T05:25:21;17.60;99.90
52275;DHT22;38228;50.940;4.024;2023-07-31T05:27:46;17.50;99.90
52275;DHT22;38228;50.940;4.024;2023-07-31T05:30:12;17.50;99.90
52275;DHT22;38228;50.940;4.024;2023-07-31T05:32:38;17.50;99.90
52275;DHT22;38228;50.940;4.024;2023-07-31T05:35:04;17.50;99.90
52275;DHT22;38228;50.940;4.024;2023-07-31T05:37:30;17.50;99.90
52275;DHT22;38228;50.940;4.024;2023-07-31T05:39:56;17.40;99.90
52275;DHT22;38228;50.940;4.024;2023-07-31T05:42:21;17.50;99.90
52275;DHT22;38228;50.940;4.024;2023-07-31T05:44:47;17.60;99.90
52275;DHT22;38228;50.940;4.024;2023-07-31T05:47:13;17.50;99.90
52275;DHT22;38228;50.940;4.024;2023-07-31T05:49:38;17.40;99.90
52275;DHT22;38228;50.940;4.024;2023-07-31T05:52:04;17.40;99.90
52275;DHT22;38228;50.940;4.024;2023-07-31T05:54:31;17.60;99.90
52275;DHT22;38228;50.940;4.024;2023-07-31T05:56:57;17.70;99.90
52275;DHT22;38228;50.940;4.024;2023-07-31T05:59:23;17.70;99.90
52275;DHT22;38228;50.940;4.024;2023-07-31T06:01:48;17.80;99.90
52275;DHT22;38228;50.940;4.024;2023-07-31T06:04:14;17.80;99.90
52275;DHT22;38228;50.940;4.024;2023-07-31T06:06:40;17.80;99.90
52275;DHT22;38228;50.940;4.024;2023-07-31T06:09:06;17.90;99.90
52275;DHT22;38228;50.940;4.024;2023-07-31T06:11:32;17.90;99.90
52275;DHT22;38228;50.940;4.024;2023-07-31T06:13:58;17.90;99.90
52275;DHT22;38228;50.940;4.024;2023-07-31T06:16:25;17.90;99.90
52275;DHT22;38228;50.940;4.024;2023-07-31T06:18:51;18.00;99.90
52275;DHT22;38228;50.940;4.024;2023-07-31T06:21:17;17.90;99.90
52275;DHT22;38228;50.940;4.024;2023-07-31T06:23:43;18.00;99.90
52275;DHT22;38228;50.940;4.024;2023-07-31T06:26:08;18.00;99.90
52275;DHT22;38228;50.940;4.024;2023-07-31T06:28:34;18.10;99.90
52275;DHT22;38228;50.940;4.024;2023-07-31T06:31:00;18.00;99.90
52275;DHT22;38228;50.940;4.024;2023-07-31T06:33:27;18.10;99.90
52275;DHT22;38228;50.940;4.024;2023-07-31T06:35:53;18.10;99.90
52275;DHT22;38228;50.940;4.024;2023-07-31T06:38:28;18.30;99.90
52275;DHT22;38228;50.940;4.024;2023-07-31T06:40:53;18.30;99.90
52275;DHT22;38228;50.940;4.024;2023-07-31T06:43:19;18.40;99.90
52275;DHT22;38228;50.940;4.024;2023-07-31T06:45:45;18.60;99.90
52275;DHT22;38228;50.940;4.024;2023-07-31T06:48:12;18.60;99.90
52275;DHT22;38228;50.940;4.024;2023-07-31T06:50:37;18.50;99.90
52275;DHT22;38228;50.940;4.024;2023-07-31T06:53:03;18.70;99.90
52275;DHT22;38228;50.940;4.024;2023-07-31T06:55:29;18.80;99.90
52275;DHT22;38228;50.940;4.024;2023-07-31T06:57:55;18.90;99.90
52275;DHT22;38228;50.940;4.024;2023-07-31T07:00:22;18.90;99.90
52275;DHT22;38228;50.940;4.024;2023-07-31T07:02:48;19.00;99.90
52275;DHT22;38228;50.940;4.024;2023-07-31T07:05:15;18.80;99.90
52275;DHT22;38228;50.940;4.024;2023-07-31T07:07:41;18.60;99.90
52275;DHT22;38228;50.940;4.024;2023-07-31T07:10:07;18.60;99.90
52275;DHT22;38228;50.940;4.024;2023-07-31T07:12:34;18.60;99.90
52275;DHT22;38228;50.940;4.024;2023-07-31T07:15:01;18.50;99.90
52275;DHT22;38228;50.940;4.024;2023-07-31T07:17:28;18.50;99.90
52275;DHT22;38228;50.940;4.024;2023-07-31T07:19:56;18.50;99.90
52275;DHT22;38228;50.940;4.024;2023-07-31T07:22:23;18.40;99.90
52275;DHT22;38228;50.940;4.024;2023-07-31T07:24:48;18.20;99.90
52275;DHT22;38228;50.940;4.024;2023-07-31T07:27:14;18.20;99.90
52275;DHT22;38228;50.940;4.024;2023-07-31T07:29:40;18.30;99.90
52275;DHT22;38228;50.940;4.024;2023-07-31T07:32:06;18.30;99.90
52275;DHT22;38228;50.940;4.024;2023-07-31T07:34:32;18.40;99.90
52275;DHT22;38228;50.940;4.024;2023-07-31T07:36:57;18.50;99.90
52275;DHT22;38228;50.940;4.024;2023-07-31T07:39:23;18.60;99.90
52275;DHT22;38228;50.940;4.024;2023-07-31T07:41:49;18.60;99.90
52275;DHT22;38228;50.940;4.024;2023-07-31T07:44:15;18.70;99.90
52275;DHT22;38228;50.940;4.024;2023-07-31T07:46:41;18.90;99.90
52275;DHT22;38228;50.940;4.024;2023-07-31T07:49:07;19.00;99.90
52275;DHT22;38228;50.940;4.024;2023-07-31T07:51:33;19.00;99.90
52275;DHT22;38228;50.940;4.024;2023-07-31T07:53:59;19.20;99.90
52275;DHT22;38228;50.940;4.024;2023-07-31T07:56:26;19.20;99.90
52275;DHT22;38228;50.940;4.024;2023-07-31T07:58:52;19.20;99.90
52275;DHT22;38228;50.940;4.024;2023-07-31T08:01:18;19.40;99.90
52275;DHT22;38228;50.940;4.024;2023-07-31T08:03:44;19.40;99.90
52275;DHT22;38228;50.940;4.024;2023-07-31T08:06:10;19.20;99.90
52275;DHT22;38228;50.940;4.024;2023-07-31T08:08:36;19.20;99.90
52275;DHT22;38228;50.940;4.024;2023-07-31T08:11:02;19.30;99.90
52275;DHT22;38228;50.940;4.024;2023-07-31T08:13:28;19.30;99.90
52275;DHT22;38228;50.940;4.024;2023-07-31T08:15:54;19.20;99.90
52275;DHT22;38228;50.940;4.024;2023-07-31T08:18:20;19.10;99.90
52275;DHT22;38228;50.940;4.024;2023-07-31T08:20:46;19.30;99.90
52275;DHT22;38228;50.940;4.024;2023-07-31T08:23:12;19.40;99.90
52275;DHT22;38228;50.940;4.024;2023-07-31T08:25:38;19.60;99.90
52275;DHT22;38228;50.940;4.024;2023-07-31T08:28:04;19.80;99.90
52275;DHT22;38228;50.940;4.024;2023-07-31T08:30:30;19.90;99.90
52275;DHT22;38228;50.940;4.024;2023-07-31T08:32:56;19.80;99.90
52275;DHT22;38228;50.940;4.024;2023-07-31T08:35:23;19.90;99.90
52275;DHT22;38228;50.940;4.024;2023-07-31T08:37:49;20.00;99.90
52275;DHT22;38228;50.940;4.024;2023-07-31T08:40:15;19.90;99.90
52275;DHT22;38228;50.940;4.024;2023-07-31T08:42:49;19.90;99.90
52275;DHT22;38228;50.940;4.024;2023-07-31T08:45:16;19.80;99.90
52275;DHT22;38228;50.940;4.024;2023-07-31T08:47:47;19.90;99.90
52275;DHT22;38228;50.940;4.024;2023-07-31T08:50:14;20.10;99.90
52275;DHT22;38228;50.940;4.024;2023-07-31T08:52:40;20.20;99.90
52275;DHT22;38228;50.940;4.024;2023-07-31T08:55:07;20.00;99.90
52275;DHT22;38228;50.940;4.024;2023-07-31T08:57:34;19.90;99.90
52275;DHT22;38228;50.940;4.024;2023-07-31T09:00:00;19.90;99.90
52275;DHT22;38228;50.940;4.024;2023-07-31T09:02:31;20.00;99.90
52275;DHT22;38228;50.940;4.024;2023-07-31T09:05:01;20.20;99.90
52275;DHT22;38228;50.940;4.024;2023-07-31T09:07:28;20.00;99.90
52275;DHT22;38228;50.940;4.024;2023-07-31T09:09:54;20.20;99.90
52275;DHT22;38228;50.940;4.024;2023-07-31T09:12:20;20.60;99.90
52275;DHT22;38228;50.940;4.024;2023-07-31T09:14:47;20.50;99.90
52275;DHT22;38228;50.940;4.024;2023-07-31T09:17:13;20.50;99.90
52275;DHT22;38228;50.940;4.024;2023-07-31T09:19:38;20.70;99.90
52275;DHT22;38228;50.940;4.024;2023-07-31T09:22:07;20.80;99.90
52275;DHT22;38228;50.940;4.024;2023-07-31T09:24:34;20.80;99.90
52275;DHT22;38228;50.940;4.024;2023-07-31T09:27:01;20.70;99.90
52275;DHT22;38228;50.940;4.024;2023-07-31T09:29:30;20.50;99.90
52275;DHT22;38228;50.940;4.024;2023-07-31T09:31:56;20.30;99.90
52275;DHT22;38228;50.940;4.024;2023-07-31T09:34:29;20.20;99.90
52275;DHT22;38228;50.940;4.024;2023-07-31T09:37:00;20.30;99.90
52275;DHT22;38228;50.940;4.024;2023-07-31T09:39:27;20.30;99.90
52275;DHT22;38228;50.940;4.024;2023-07-31T09:41:55;19.90;99.90
52275;DHT22;38228;50.940;4.024;2023-07-31T09:44:21;19.90;99.90
52275;DHT22;38228;50.940;4.024;2023-07-31T09:47:02;19.90;99.90
52275;DHT22;38228;50.940;4.024;2023-07-31T09:49:29;19.80;99.90
52275;DHT22;38228;50.940;4.024;2023-07-31T09:51:54;19.70;99.90
52275;DHT22;38228;50.940;4.024;2023-07-31T09:54:20;19.70;99.90
52275;DHT22;38228;50.940;4.024;2023-07-31T09:56:48;19.90;99.90
52275;DHT22;38228;50.940;4.024;2023-07-31T09:59:16;19.60;99.90
52275;DHT22;38228;50.940;4.024;2023-07-31T10:01:43;19.40;99.90
52275;DHT22;38228;50.940;4.024;2023-07-31T10:04:10;19.40;99.90
52275;DHT22;38228;50.940;4.024;2023-07-31T10:06:37;19.50;99.90
52275;DHT22;38228;50.940;4.024;2023-07-31T10:09:07;19.60;99.90
52275;DHT22;38228;50.940;4.024;2023-07-31T10:11:38;19.50;99.90
52275;DHT22;38228;50.940;4.024;2023-07-31T10:14:07;19.70;99.90
52275;DHT22;38228;50.940;4.024;2023-07-31T10:16:34;19.70;99.90
52275;DHT22;38228;50.940;4.024;2023-07-31T10:19:00;19.90;99.90
52275;DHT22;38228;50.940;4.024;2023-07-31T10:21:27;20.00;99.90
52275;DHT22;38228;50.940;4.024;2023-07-31T10:23:54;19.90;99.90
52275;DHT22;38228;50.940;4.024;2023-07-31T10:26:22;19.90;99.90
52275;DHT22;38228;50.940;4.024;2023-07-31T10:28:49;20.10;99.90
52275;DHT22;38228;50.940;4.024;2023-07-31T10:31:15;20.10;99.90
52275;DHT22;38228;50.940;4.024;2023-07-31T10:33:42;20.10;99.90
52275;DHT22;38228;50.940;4.024;2023-07-31T10:36:18;20.20;99.90
52275;DHT22;38228;50.940;4.024;2023-07-31T10:38:45;20.40;99.90
52275;DHT22;38228;50.940;4.024;2023-07-31T10:41:11;20.40;99.90
52275;DHT22;38228;50.940;4.024;2023-07-31T10:43:37;20.30;99.90
52275;DHT22;38228;50.940;4.024;2023-07-31T10:46:12;20.20;99.90
52275;DHT22;38228;50.940;4.024;2023-07-31T10:48:39;20.10;99.90
52275;DHT22;38228;50.940;4.024;2023-07-31T10:51:11;20.20;99.90
52275;DHT22;38228;50.940;4.024;2023-07-31T10:53:41;20.00;99.90
52275;DHT22;38228;50.940;4.024;2023-07-31T10:56:08;20.10;99.90
52275;DHT22;38228;50.940;4.024;2023-07-31T10:58:35;20.30;99.90
52275;DHT22;38228;50.940;4.024;2023-07-31T11:01:03;20.30;99.90
52275;DHT22;38228;50.940;4.024;2023-07-31T11:03:46;20.40;99.90
52275;DHT22;38228;50.940;4.024;2023-07-31T11:06:13;20.40;99.90
52275;DHT22;38228;50.940;4.024;2023-07-31T11:08:47;20.60;99.90
52275;DHT22;38228;50.940;4.024;2023-07-31T11:11:14;20.70;99.90
52275;DHT22;38228;50.940;4.024;2023-07-31T11:13:51;20.70;99.90
52275;DHT22;38228;50.940;4.024;2023-07-31T11:16:24;20.70;99.90
52275;DHT22;38228;50.940;4.024;2023-07-31T11:18:51;20.60;99.90
52275;DHT22;38228;50.940;4.024;2023-07-31T11:21:20;20.70;99.90
52275;DHT22;38228;50.940;4.024;2023-07-31T11:23:50;20.60;99.90
52275;DHT22;38228;50.940;4.024;2023-07-31T11:26:16;20.60;99.90
52275;DHT22;38228;50.940;4.024;2023-07-31T11:28:42;20.70;99.90
52275;DHT22;38228;50.940;4.024;2023-07-31T11:31:11;20.40;99.90
52275;DHT22;38228;50.940;4.024;2023-07-31T11:33:37;20.40;99.90
52275;DHT22;38228;50.940;4.024;2023-07-31T11:36:03;20.30;99.90
52275;DHT22;38228;50.940;4.024;2023-07-31T11:38:31;20.30;99.90
52275;DHT22;38228;50.940;4.024;2023-07-31T11:41:01;20.20;99.90
52275;DHT22;38228;50.940;4.024;2023-07-31T11:43:28;20.30;99.90
52275;DHT22;38228;50.940;4.024;2023-07-31T11:45:58;20.40;99.90
52275;DHT22;38228;50.940;4.024;2023-07-31T11:50:53;20.40;99.90
52275;DHT22;38228;50.940;4.024;2023-07-31T11:53:25;20.40;99.90
52275;DHT22;38228;50.940;4.024;2023-07-31T11:55:52;20.70;99.90
52275;DHT22;38228;50.940;4.024;2023-07-31T11:58:18;20.90;99.90
52275;DHT22;38228;50.940;4.024;2023-07-31T12:00:45;21.00;99.90
52275;DHT22;38228;50.940;4.024;2023-07-31T12:03:11;21.10;99.90
52275;DHT22;38228;50.940;4.024;2023-07-31T12:05:38;21.20;99.90
52275;DHT22;38228;50.940;4.024;2023-07-31T12:08:12;21.20;99.90
52275;DHT22;38228;50.940;4.024;2023-07-31T12:10:38;20.90;99.90
52275;DHT22;38228;50.940;4.024;2023-07-31T12:13:10;20.90;99.90
52275;DHT22;38228;50.940;4.024;2023-07-31T12:15:41;21.00;99.90
52275;DHT22;38228;50.940;4.024;2023-07-31T12:18:08;21.10;99.90
52275;DHT22;38228;50.940;4.024;2023-07-31T12:20:35;21.00;99.90
52275;DHT22;38228;50.940;4.024;2023-07-31T12:23:05;20.90;99.90
52275;DHT22;38228;50.940;4.024;2023-07-31T12:25:32;21.10;99.90
52275;DHT22;38228;50.940;4.024;2023-07-31T12:28:03;21.20;99.90
52275;DHT22;38228;50.940;4.024;2023-07-31T12:30:33;21.40;99.90
52275;DHT22;38228;50.940;4.024;2023-07-31T12:33:14;21.50;99.90
52275;DHT22;38228;50.940;4.024;2023-07-31T12:35:44;21.30;99.90
52275;DHT22;38228;50.940;4.024;2023-07-31T12:38:11;21.30;99.90
52275;DHT22;38228;50.940;4.024;2023-07-31T12:40:38;21.40;99.90
52275;DHT22;38228;50.940;4.024;2023-07-31T12:43:05;21.20;99.90
52275;DHT22;38228;50.940;4.024;2023-07-31T12:45:31;21.10;99.90
52275;DHT22;38228;50.940;4.024;2023-07-31T12:47:58;21.20;99.90
52275;DHT22;38228;50.940;4.024;2023-07-31T12:50:24;21.10;99.90
52275;DHT22;38228;50.940;4.024;2023-07-31T12:52:49;20.90;99.90
52275;DHT22;38228;50.940;4.024;2023-07-31T12:55:15;20.90;99.90
52275;DHT22;38228;50.940;4.024;2023-07-31T12:57:41;20.50;99.90
52275;DHT22;38228;50.940;4.024;2023-07-31T13:00:08;20.10;99.90
52275;DHT22;38228;50.940;4.024;2023-07-31T13:02:33;20.10;99.90
52275;DHT22;38228;50.940;4.024;2023-07-31T13:04:59;20.10;99.90
52275;DHT22;38228;50.940;4.024;2023-07-31T13:07:25;20.10;99.90
52275;DHT22;38228;50.940;4.024;2023-07-31T13:09:51;19.60;99.90
52275;DHT22;38228;50.940;4.024;2023-07-31T13:12:17;19.50;99.90
52275;DHT22;38228;50.940;4.024;2023-07-31T13:14:42;19.50;99.90
52275;DHT22;38228;50.940;4.024;2023-07-31T13:17:08;19.60;99.90
52275;DHT22;38228;50.940;4.024;2023-07-31T13:19:34;19.70;99.90
52275;DHT22;38228;50.940;4.024;2023-07-31T13:22:00;19.80;99.90
52275;DHT22;38228;50.940;4.024;2023-07-31T13:24:25;19.70;99.90
52275;DHT22;38228;50.940;4.024;2023-07-31T13:26:51;19.70;99.90
52275;DHT22;38228;50.940;4.024;2023-07-31T13:29:16;19.60;99.90
52275;DHT22;38228;50.940;4.024;2023-07-31T13:31:42;19.60;99.90
52275;DHT22;38228;50.940;4.024;2023-07-31T13:34:08;19.50;99.90
52275;DHT22;38228;50.940;4.024;2023-07-31T13:36:34;19.60;99.90
52275;DHT22;38228;50.940;4.024;2023-07-31T13:39:00;19.60;99.90
52275;DHT22;38228;50.940;4.024;2023-07-31T13:41:26;19.40;99.90
52275;DHT22;38228;50.940;4.024;2023-07-31T13:43:52;19.30;99.90
52275;DHT22;38228;50.940;4.024;2023-07-31T13:46:17;19.30;99.90
52275;DHT22;38228;50.940;4.024;2023-07-31T13:48:43;19.30;99.90
52275;DHT22;38228;50.940;4.024;2023-07-31T13:51:09;19.30;99.90
52275;DHT22;38228;50.940;4.024;2023-07-31T13:53:34;19.20;99.90
52275;DHT22;38228;50.940;4.024;2023-07-31T13:56:00;19.20;99.90
52275;DHT22;38228;50.940;4.024;2023-07-31T13:58:26;19.30;99.90
52275;DHT22;38228;50.940;4.024;2023-07-31T14:00:52;19.40;99.90
52275;DHT22;38228;50.940;4.024;2023-07-31T14:03:17;19.40;99.90
52275;DHT22;38228;50.940;4.024;2023-07-31T14:05:43;19.30;99.90
52275;DHT22;38228;50.940;4.024;2023-07-31T14:08:09;19.50;99.90
52275;DHT22;38228;50.940;4.024;2023-07-31T14:10:34;19.60;99.90
52275;DHT22;38228;50.940;4.024;2023-07-31T14:13:00;19.60;99.90
52275;DHT22;38228;50.940;4.024;2023-07-31T14:15:26;19.60;99.90
52275;DHT22;38228;50.940;4.024;2023-07-31T14:17:51;19.70;99.90
52275;DHT22;38228;50.940;4.024;2023-07-31T14:20:17;19.70;99.90
52275;DHT22;38228;50.940;4.024;2023-07-31T14:22:43;19.70;99.90
52275;DHT22;38228;50.940;4.024;2023-07-31T14:25:09;19.80;99.90
52275;DHT22;38228;50.940;4.024;2023-07-31T14:27:36;19.80;99.90
52275;DHT22;38228;50.940;4.024;2023-07-31T14:30:02;19.90;99.90
52275;DHT22;38228;50.940;4.024;2023-07-31T14:32:28;20.00;99.90
52275;DHT22;38228;50.940;4.024;2023-07-31T14:34:54;20.00;99.90
52275;DHT22;38228;50.940;4.024;2023-07-31T14:37:20;19.90;99.90
52275;DHT22;38228;50.940;4.024;2023-07-31T14:39:46;19.90;99.90
52275;DHT22;38228;50.940;4.024;2023-07-31T14:42:12;19.80;99.90
52275;DHT22;38228;50.940;4.024;2023-07-31T14:44:38;19.60;99.90
52275;DHT22;38228;50.940;4.024;2023-07-31T14:47:04;19.50;99.90
52275;DHT22;38228;50.940;4.024;2023-07-31T14:49:30;19.50;99.90
52275;DHT22;38228;50.940;4.024;2023-07-31T14:51:56;19.50;99.90
52275;DHT22;38228;50.940;4.024;2023-07-31T14:54:21;19.50;99.90
52275;DHT22;38228;50.940;4.024;2023-07-31T14:56:47;19.50;99.90
52275;DHT22;38228;50.940;4.024;2023-07-31T14:59:13;19.20;99.90
52275;DHT22;38228;50.940;4.024;2023-07-31T15:01:38;19.30;99.90
52275;DHT22;38228;50.940;4.024;2023-07-31T15:04:04;19.10;99.90
52275;DHT22;38228;50.940;4.024;2023-07-31T15:06:30;19.10;99.90
52275;DHT22;38228;50.940;4.024;2023-07-31T15:08:56;19.00;99.90
52275;DHT22;38228;50.940;4.024;2023-07-31T15:11:21;19.00;99.90
52275;DHT22;38228;50.940;4.024;2023-07-31T15:13:47;19.00;99.90
52275;DHT22;38228;50.940;4.024;2023-07-31T15:16:13;19.00;99.90
52275;DHT22;38228;50.940;4.024;2023-07-31T15:18:38;19.20;99.90
52275;DHT22;38228;50.940;4.024;2023-07-31T15:21:04;19.30;99.90
52275;DHT22;38228;50.940;4.024;2023-07-31T15:23:32;19.30;99.90
52275;DHT22;38228;50.940;4.024;2023-07-31T15:25:57;19.20;99.90
52275;DHT22;38228;50.940;4.024;2023-07-31T15:28:23;19.30;99.90
52275;DHT22;38228;50.940;4.024;2023-07-31T15:30:49;19.30;99.90
52275;DHT22;38228;50.940;4.024;2023-07-31T15:33:15;19.40;99.90